Time;durP1;ratioP1;P1;durP2;ratioP2;P2;SDS_P1;SDS_P2;PMS_P1;PMS_P2;Temp;Humidity;BMP_temperature;BMP_pressure;BME280_temperature;BME280_humidity;BME280_pressure;Samples;Min_cycle;Max_cycle;Signal;HPM_P1;HPM_P2
2021/10/02 00:31:06;;;;;;;4.47;3.60;;;13.10;98.70;;;;;;5071329;28;20855;-52
2021/10/02 00:35:22;;;;;;;5.93;3.77;;;12.70;99.40;;;;;;5049818;28;20950;-52
2021/10/02 00:38:07;;;;;;;8.33;3.67;;;12.50;99.30;;;;;;5070806;28;20447;-54
2021/10/02 00:46:07;;;;;;;5.33;4.30;;;12.40;99.50;;;;;;5071123;28;21031;-54
2021/10/02 00:48:35;;;;;;;9.13;4.00;;;12.90;99.90;;;;;;5070702;28;20782;-51
2021/10/02 00:51:02;;;;;;;6.43;3.70;;;13.00;99.90;;;;;;5071150;28;20449;-52
2021/10/02 00:53:28;;;;;;;4.10;3.70;;;13.10;99.90;;;;;;5071147;28;20737;-54
2021/10/02 00:55:55;;;;;;;4.33;3.60;;;13.30;99.90;;;;;;5071197;28;20888;-52
2021/10/02 00:58:23;;;;;;;4.73;4.20;;;12.50;99.90;;;;;;5070695;28;20444;-52
2021/10/02 01:00:52;;;;;;;5.93;4.03;;;12.80;99.90;;;;;;5070852;28;20559;-52
2021/10/02 01:03:38;;;;;;;6.80;4.30;;;13.10;99.90;;;;;;5069155;28;20997;-51
2021/10/02 01:06:32;;;;;;;5.43;3.80;;;12.80;99.90;;;;;;5071047;28;20437;-52
2021/10/02 01:09:05;;;;;;;4.23;3.43;;;12.80;99.90;;;;;;5072337;28;20988;-52
2021/10/02 01:11:46;;;;;;;6.50;4.47;;;12.50;99.90;;;;;;5074649;28;20444;-52
2021/10/02 01:14:20;;;;;;;6.67;3.80;;;12.90;99.90;;;;;;5074707;28;20440;-52
2021/10/02 01:16:52;;;;;;;5.50;3.73;;;13.00;99.90;;;;;;5074726;28;20437;-52
2021/10/02 01:19:43;;;;;;;7.23;4.43;;;12.90;99.90;;;;;;5074312;28;20443;-52
2021/10/02 01:22:15;;;;;;;6.93;3.70;;;13.20;99.90;;;;;;5073204;28;20489;-51
2021/10/02 01:25:03;;;;;;;4.13;3.67;;;13.10;99.90;;;;;;5074559;28;20483;-51
2021/10/02 01:27:58;;;;;;;3.70;3.20;;;13.10;99.90;;;;;;5074298;28;20444;-51
2021/10/02 01:30:50;;;;;;;4.67;3.63;;;13.30;99.90;;;;;;5072969;28;20504;-52
2021/10/02 01:33:29;;;;;;;3.80;3.40;;;12.80;99.90;;;;;;5073186;28;20829;-51
2021/10/02 01:36:07;;;;;;;5.57;4.07;;;12.80;99.90;;;;;;5074177;28;20435;-52
2021/10/02 01:47:11;;;;;;;8.23;4.97;;;12.80;99.90;;;;;;5073872;28;20476;-52
2021/10/02 01:49:41;;;;;;;6.67;4.73;;;12.80;99.90;;;;;;5073645;28;20436;-51
2021/10/02 01:52:08;;;;;;;5.83;3.60;;;13.20;99.90;;;;;;5074055;28;20518;-52
2021/10/02 01:54:37;;;;;;;6.50;4.17;;;12.80;99.90;;;;;;5072512;28;20529;-52
2021/10/02 01:57:05;;;;;;;6.73;4.57;;;13.10;99.90;;;;;;5073945;28;20572;-52
2021/10/02 01:59:34;;;;;;;7.90;4.50;;;12.80;99.90;;;;;;5073413;28;20534;-51
2021/10/02 02:02:02;;;;;;;4.80;3.97;;;12.60;99.90;;;;;;5073826;28;20563;-51
2021/10/02 02:04:30;;;;;;;4.10;3.60;;;13.20;99.90;;;;;;5073845;28;20439;-51
2021/10/02 02:06:59;;;;;;;7.07;4.40;;;13.10;99.90;;;;;;5072442;28;20538;-51
2021/10/02 02:09:31;;;;;;;4.70;4.20;;;12.80;99.90;;;;;;5071846;28;20443;-52
2021/10/02 02:11:59;;;;;;;6.47;4.00;;;12.30;99.90;;;;;;5072416;28;20457;-53
2021/10/02 02:14:27;;;;;;;14.20;8.83;;;12.70;99.90;;;;;;5072431;28;20483;-52
2021/10/02 02:16:55;;;;;;;6.40;5.00;;;12.70;99.90;;;;;;5072261;28;20505;-52
2021/10/02 02:19:25;;;;;;;8.33;4.40;;;13.00;99.90;;;;;;5071871;28;20471;-52
2021/10/02 02:21:52;;;;;;;6.13;4.43;;;12.90;99.90;;;;;;5073249;28;20977;-52
2021/10/02 02:24:19;;;;;;;5.13;4.50;;;12.70;99.90;;;;;;5072206;28;20489;-52
2021/10/02 02:26:46;;;;;;;4.63;4.10;;;12.60;99.90;;;;;;5073424;28;20498;-53
2021/10/02 02:29:13;;;;;;;4.93;4.43;;;12.70;99.90;;;;;;5073047;28;20858;-52
2021/10/02 02:31:40;;;;;;;4.50;3.83;;;12.40;99.90;;;;;;5073236;28;20547;-53
2021/10/02 02:34:11;;;;;;;7.90;4.50;;;12.70;99.90;;;;;;5062363;22;20596;-50
2021/10/02 02:36:38;;;;;;;4.60;3.40;;;12.40;99.90;;;;;;5033419;28;20439;-51
2021/10/02 02:39:04;;;;;;;6.30;4.10;;;12.70;99.90;;;;;;5032980;28;20520;-51
2021/10/02 02:41:31;;;;;;;4.80;4.17;;;12.70;99.90;;;;;;5032187;28;20865;-51
2021/10/02 02:43:58;;;;;;;5.93;4.47;;;12.70;99.90;;;;;;5033031;28;20451;-51
2021/10/02 02:46:30;;;;;;;5.20;3.97;;;12.80;99.90;;;;;;5033308;28;20433;-51
2021/10/02 02:49:02;;;;;;;6.80;4.60;;;12.70;99.90;;;;;;5032920;28;20440;-51
2021/10/02 02:51:37;;;;;;;7.90;4.27;;;12.80;99.90;;;;;;5033576;28;20996;-51
2021/10/02 02:54:11;;;;;;;6.40;4.40;;;12.90;99.90;;;;;;5033198;28;20535;-51
2021/10/02 02:56:43;;;;;;;6.77;4.37;;;12.80;99.90;;;;;;5033057;28;20492;-51
2021/10/02 02:59:16;;;;;;;5.60;4.40;;;12.80;99.90;;;;;;5031524;28;20457;-51
2021/10/02 03:01:47;;;;;;;8.93;5.10;;;13.10;99.90;;;;;;5031556;28;20483;-51
2021/10/02 03:04:17;;;;;;;5.30;4.33;;;12.80;99.90;;;;;;5032777;28;20515;-51
2021/10/02 03:06:49;;;;;;;7.93;4.80;;;12.80;99.90;;;;;;5033099;28;20761;-51
2021/10/02 03:09:17;;;;;;;7.57;5.03;;;12.80;99.90;;;;;;5031153;28;20491;-51
2021/10/02 03:11:46;;;;;;;4.93;4.50;;;12.80;99.90;;;;;;5032722;28;20442;-51
2021/10/02 03:14:14;;;;;;;5.47;4.67;;;12.70;99.90;;;;;;5031389;28;20470;-51
2021/10/02 03:16:46;;;;;;;6.93;4.80;;;12.70;99.90;;;;;;5032702;28;20476;-51
2021/10/02 03:19:14;;;;;;;6.53;4.53;;;12.70;99.90;;;;;;5031054;28;20528;-51
2021/10/02 03:21:42;;;;;;;6.10;5.03;;;12.70;99.90;;;;;;5031311;28;20456;-51
2021/10/02 03:24:10;;;;;;;6.13;4.80;;;12.80;99.90;;;;;;5032566;28;20544;-51
2021/10/02 03:26:40;;;;;;;5.37;4.80;;;12.70;99.90;;;;;;5031502;28;20908;-51
2021/10/02 03:29:07;;;;;;;5.90;5.27;;;12.70;99.90;;;;;;5031374;28;20637;-51
2021/10/02 03:31:37;;;;;;;5.43;4.23;;;12.70;99.90;;;;;;5031820;28;20446;-51
2021/10/02 03:34:04;;;;;;;8.67;5.10;;;12.30;99.90;;;;;;5033576;28;21036;-51
2021/10/02 03:36:31;;;;;;;8.60;4.83;;;12.50;99.90;;;;;;5032729;28;20445;-51
2021/10/02 03:38:57;;;;;;;8.10;4.23;;;12.70;99.90;;;;;;5032147;28;20442;-51
2021/10/02 03:41:25;;;;;;;6.47;5.07;;;12.80;99.90;;;;;;5032222;28;20894;-51
2021/10/02 03:43:52;;;;;;;6.13;4.70;;;12.80;99.90;;;;;;5032101;28;20495;-51
2021/10/02 03:46:19;;;;;;;4.93;4.53;;;13.10;99.90;;;;;;5032096;28;20827;-51
2021/10/02 03:48:46;;;;;;;5.60;4.63;;;12.80;99.90;;;;;;5031744;28;20437;-51
2021/10/02 03:51:12;;;;;;;6.30;4.40;;;12.90;99.90;;;;;;5031972;28;20436;-51
2021/10/02 03:53:41;;;;;;;7.87;4.70;;;12.80;99.90;;;;;;5031678;28;20454;-51
2021/10/02 03:56:09;;;;;;;5.10;4.70;;;12.80;99.90;;;;;;5032221;28;20441;-51
2021/10/02 03:58:37;;;;;;;7.23;4.43;;;12.80;99.90;;;;;;5032425;28;20444;-51
2021/10/02 04:01:04;;;;;;;7.90;5.63;;;12.40;99.90;;;;;;5031735;28;20496;-51
2021/10/02 04:03:31;;;;;;;5.57;4.83;;;13.10;99.90;;;;;;5031728;28;20498;-51
2021/10/02 04:05:57;;;;;;;5.70;4.90;;;12.80;99.90;;;;;;5032013;28;20789;-51
2021/10/02 04:08:24;;;;;;;6.93;4.90;;;12.90;99.90;;;;;;5031380;28;20430;-51
2021/10/02 04:10:50;;;;;;;7.97;5.00;;;12.90;99.90;;;;;;5031945;28;20434;-51
2021/10/02 04:13:17;;;;;;;5.13;4.13;;;13.30;99.90;;;;;;5031639;28;20511;-51
2021/10/02 04:15:45;;;;;;;5.90;4.63;;;12.50;99.90;;;;;;5031658;28;20516;-51
2021/10/02 04:18:12;;;;;;;5.60;4.20;;;12.90;99.90;;;;;;5031173;28;20985;-51
2021/10/02 04:20:38;;;;;;;5.10;4.57;;;13.00;99.90;;;;;;5031501;28;20465;-51
2021/10/02 04:23:05;;;;;;;6.20;4.67;;;13.00;99.90;;;;;;5031567;28;20977;-51
2021/10/02 04:25:32;;;;;;;11.00;4.60;;;13.00;99.90;;;;;;5031693;28;20410;-51
2021/10/02 04:27:59;;;;;;;6.93;5.13;;;13.00;99.90;;;;;;5031223;28;20453;-51
2021/10/02 04:30:25;;;;;;;8.43;5.60;;;13.40;99.90;;;;;;5031675;28;20946;-51
2021/10/02 04:32:53;;;;;;;6.20;4.90;;;13.00;99.90;;;;;;5031476;28;20819;-51
2021/10/02 04:35:20;;;;;;;6.33;4.27;;;13.00;99.90;;;;;;5031476;28;21068;-51
2021/10/02 04:37:47;;;;;;;7.80;5.90;;;12.60;99.90;;;;;;5031185;28;21069;-51
2021/10/02 04:40:14;;;;;;;4.83;4.23;;;13.20;99.90;;;;;;5031457;28;20462;-51
2021/10/02 04:42:41;;;;;;;6.30;5.30;;;13.00;99.90;;;;;;5032452;28;20493;-51
2021/10/02 04:45:08;;;;;;;10.10;5.00;;;13.10;99.90;;;;;;5035439;28;20875;-51
2021/10/02 04:47:34;;;;;;;5.93;5.43;;;12.90;99.90;;;;;;5035408;28;20437;-51
2021/10/02 04:50:03;;;;;;;6.60;4.67;;;12.70;99.90;;;;;;5036935;28;20439;-51
2021/10/02 04:52:30;;;;;;;7.60;4.77;;;13.00;99.90;;;;;;5035451;28;20462;-51
2021/10/02 04:54:57;;;;;;;6.97;5.73;;;13.10;99.90;;;;;;5035242;28;20430;-51
2021/10/02 04:57:23;;;;;;;6.73;4.73;;;13.10;99.90;;;;;;5035176;28;20454;-51
2021/10/02 04:59:50;;;;;;;9.03;5.30;;;13.30;99.90;;;;;;5034899;28;20535;-51
2021/10/02 05:02:17;;;;;;;8.70;5.67;;;13.10;99.90;;;;;;5034839;28;20499;-51
2021/10/02 05:04:43;;;;;;;6.90;5.00;;;13.00;99.90;;;;;;5035123;28;20437;-51
2021/10/02 05:07:11;;;;;;;5.07;4.60;;;13.30;99.90;;;;;;5035142;28;20439;-51
2021/10/02 05:09:40;;;;;;;7.93;5.77;;;13.10;99.90;;;;;;5034688;28;20836;-51
2021/10/02 05:12:07;;;;;;;7.67;5.33;;;13.10;99.90;;;;;;5034976;28;20500;-51
2021/10/02 05:14:34;;;;;;;5.40;4.80;;;13.10;99.90;;;;;;5034973;28;20439;-51
2021/10/02 05:17:02;;;;;;;5.97;5.33;;;13.00;99.90;;;;;;5034931;28;20926;-51
2021/10/02 05:19:29;;;;;;;9.00;5.00;;;13.20;99.90;;;;;;5034574;28;20944;-51
2021/10/02 05:21:56;;;;;;;6.53;5.60;;;13.60;99.90;;;;;;5034985;28;20409;-51
2021/10/02 05:24:24;;;;;;;5.80;4.50;;;13.10;99.90;;;;;;5034721;28;20839;-51
2021/10/02 05:26:50;;;;;;;5.70;5.10;;;13.20;99.90;;;;;;5034736;28;20453;-51
2021/10/02 05:29:17;;;;;;;5.93;4.83;;;13.10;99.90;;;;;;5034188;28;20450;-51
2021/10/02 05:31:44;;;;;;;7.07;5.90;;;12.80;99.90;;;;;;5034589;28;20907;-51
2021/10/02 05:34:10;;;;;;;10.13;6.20;;;13.10;99.90;;;;;;5034767;28;20471;-51
2021/10/02 05:36:37;;;;;;;7.03;5.53;;;13.10;99.90;;;;;;5034476;28;20427;-51
2021/10/02 05:39:04;;;;;;;6.60;5.73;;;12.80;99.90;;;;;;5034012;28;20429;-51
2021/10/02 05:41:32;;;;;;;5.57;5.07;;;13.10;99.90;;;;;;5034289;28;20433;-51
2021/10/02 05:43:58;;;;;;;7.40;5.50;;;13.10;99.90;;;;;;5034117;28;21029;-51
2021/10/02 05:46:25;;;;;;;5.47;5.07;;;13.10;99.90;;;;;;5034342;28;20915;-51
2021/10/02 05:48:52;;;;;;;5.57;4.60;;;12.80;99.90;;;;;;5033896;28;20439;-51
2021/10/02 05:51:19;;;;;;;7.97;5.57;;;12.90;99.90;;;;;;5034044;28;20450;-51
2021/10/02 05:53:46;;;;;;;11.73;5.17;;;12.70;99.90;;;;;;5033696;28;20554;-51
2021/10/02 05:56:12;;;;;;;6.00;5.40;;;13.40;99.90;;;;;;5034094;28;20442;-51
2021/10/02 05:58:40;;;;;;;6.30;5.17;;;13.20;99.90;;;;;;5033697;28;20935;-51
2021/10/02 06:01:07;;;;;;;6.13;5.47;;;12.90;99.90;;;;;;5034213;28;20804;-52
2021/10/02 06:03:33;;;;;;;6.40;5.20;;;13.00;99.90;;;;;;5033785;28;20496;-51
2021/10/02 06:06:00;;;;;;;6.30;5.10;;;13.20;99.90;;;;;;5034005;28;20432;-51
2021/10/02 06:08:27;;;;;;;7.30;5.90;;;13.30;99.90;;;;;;5035584;28;20465;-51
2021/10/02 06:10:54;;;;;;;6.07;5.47;;;13.20;99.90;;;;;;5034389;28;20487;-51
2021/10/02 06:13:21;;;;;;;6.60;5.00;;;13.10;99.90;;;;;;5033746;28;20493;-51
2021/10/02 06:15:49;;;;;;;7.93;5.60;;;13.30;99.90;;;;;;5033766;28;20454;-51
2021/10/02 06:18:16;;;;;;;6.50;5.40;;;13.40;99.90;;;;;;5033478;28;20453;-51
2021/10/02 06:20:43;;;;;;;7.30;4.60;;;13.30;99.90;;;;;;5033608;28;20441;-50
2021/10/02 06:23:09;;;;;;;6.93;5.33;;;13.40;99.90;;;;;;5033359;28;20482;-51
2021/10/02 06:25:36;;;;;;;5.80;5.20;;;13.40;99.90;;;;;;5033369;28;20435;-51
2021/10/02 06:28:03;;;;;;;11.83;9.77;;;13.40;99.90;;;;;;5033239;28;20440;-50
2021/10/02 06:30:30;;;;;;;5.60;4.97;;;13.50;99.90;;;;;;5033489;28;20463;-51
2021/10/02 06:32:58;;;;;;;7.30;5.20;;;13.40;99.90;;;;;;5033477;28;20480;-51
2021/10/02 06:35:25;;;;;;;7.47;4.63;;;13.50;99.90;;;;;;5033325;28;20448;-51
2021/10/02 06:37:51;;;;;;;8.93;5.00;;;13.50;99.90;;;;;;5032476;28;20412;-51
2021/10/02 06:40:18;;;;;;;6.83;5.30;;;13.50;99.90;;;;;;5033066;28;20441;-50
2021/10/02 06:42:44;;;;;;;5.77;5.13;;;13.60;99.90;;;;;;5032813;28;21073;-50
2021/10/02 06:45:11;;;;;;;9.13;6.43;;;13.50;99.90;;;;;;5032901;28;20434;-51
2021/10/02 06:47:38;;;;;;;6.50;5.13;;;13.60;99.90;;;;;;5032671;28;20439;-51
2021/10/02 06:50:07;;;;;;;8.93;5.40;;;13.40;99.90;;;;;;5032200;28;20429;-51
2021/10/02 06:52:33;;;;;;;7.50;6.03;;;13.60;99.90;;;;;;5032681;28;20561;-51
2021/10/02 06:55:00;;;;;;;8.90;6.03;;;13.70;99.90;;;;;;5032892;28;20434;-50
2021/10/02 06:57:27;;;;;;;6.53;5.83;;;13.50;99.90;;;;;;5032848;28;20439;-50
2021/10/02 06:59:54;;;;;;;6.03;5.47;;;13.70;99.90;;;;;;5032504;28;20925;-51
2021/10/02 07:02:20;;;;;;;7.30;5.60;;;13.80;99.90;;;;;;5032584;28;20963;-51
2021/10/02 07:04:49;;;;;;;6.33;5.60;;;14.00;99.90;;;;;;5031738;28;20483;-50
2021/10/02 07:07:17;;;;;;;5.90;4.73;;;13.90;99.90;;;;;;5032377;28;20409;-51
2021/10/02 07:09:44;;;;;;;8.73;5.50;;;13.60;99.90;;;;;;5032024;28;20411;-50
2021/10/02 07:12:11;;;;;;;7.47;6.50;;;14.20;99.90;;;;;;5032475;28;20449;-51
2021/10/02 07:14:38;;;;;;;7.63;6.60;;;14.00;99.90;;;;;;5032780;28;20773;-51
2021/10/02 07:17:04;;;;;;;6.87;6.17;;;14.00;99.90;;;;;;5032500;28;20437;-50
2021/10/02 07:19:31;;;;;;;10.13;5.73;;;14.10;99.90;;;;;;5032009;28;20414;-51
2021/10/02 07:21:58;;;;;;;6.40;5.57;;;14.10;99.90;;;;;;5032157;28;20751;-51
2021/10/02 07:24:26;;;;;;;7.10;5.60;;;14.10;99.90;;;;;;5032403;28;20489;-51
2021/10/02 07:26:52;;;;;;;6.60;5.23;;;14.10;99.90;;;;;;5031599;28;20987;-50
2021/10/02 07:29:19;;;;;;;7.17;5.20;;;14.50;99.90;;;;;;5032730;28;20457;-50
2021/10/02 07:31:48;;;;;;;5.50;4.90;;;14.20;99.90;;;;;;5031822;28;20431;-50
2021/10/02 07:34:14;;;;;;;6.30;5.00;;;14.30;99.90;;;;;;5031852;28;20474;-52
2021/10/02 07:36:41;;;;;;;6.53;5.50;;;14.40;99.90;;;;;;5031764;28;20779;-52
2021/10/02 07:39:08;;;;;;;7.57;6.00;;;14.50;99.90;;;;;;5029907;28;20498;-51
2021/10/02 07:41:38;;;;;;;9.20;5.20;;;14.60;99.90;;;;;;5031950;28;20413;-52
2021/10/02 07:44:06;;;;;;;5.80;5.30;;;14.60;99.90;;;;;;5031922;28;20496;-52
2021/10/02 07:46:35;;;;;;;5.97;5.47;;;14.70;99.90;;;;;;5031773;28;20430;-52
2021/10/02 07:49:02;;;;;;;6.53;5.07;;;14.70;99.90;;;;;;5031628;28;20421;-52
2021/10/02 07:51:29;;;;;;;8.20;5.27;;;14.80;99.90;;;;;;5031728;28;20434;-52
2021/10/02 07:53:56;;;;;;;8.10;5.50;;;14.80;99.90;;;;;;5031485;28;20546;-51
2021/10/02 07:56:24;;;;;;;10.10;4.87;;;14.80;99.90;;;;;;5031860;28;20413;-51
2021/10/02 07:58:53;;;;;;;7.00;5.03;;;14.90;99.90;;;;;;5031354;28;21071;-50
2021/10/02 08:01:20;;;;;;;6.43;4.90;;;14.90;99.90;;;;;;5031787;28;20458;-51
2021/10/02 08:03:48;;;;;;;8.30;5.20;;;15.00;99.90;;;;;;5031517;28;20494;-50
2021/10/02 08:06:16;;;;;;;6.10;5.33;;;15.00;99.90;;;;;;5031902;28;20447;-53
2021/10/02 08:08:44;;;;;;;6.10;5.40;;;15.10;99.90;;;;;;5031366;28;20457;-52
2021/10/02 08:11:11;;;;;;;6.20;4.80;;;15.20;99.90;;;;;;5031741;28;20967;-50
2021/10/02 08:13:37;;;;;;;6.60;5.77;;;15.10;99.90;;;;;;5031702;28;20424;-51
2021/10/02 08:16:07;;;;;;;6.30;5.70;;;15.20;99.90;;;;;;5031571;28;20438;-51
2021/10/02 08:18:38;;;;;;;7.83;5.30;;;15.30;99.90;;;;;;5031192;28;20871;-51
2021/10/02 08:21:05;;;;;;;6.43;5.13;;;15.30;99.90;;;;;;5031399;28;20446;-52
2021/10/02 08:23:36;;;;;;;7.23;4.90;;;15.30;99.90;;;;;;5031376;28;20459;-50
2021/10/02 08:26:04;;;;;;;6.10;5.10;;;15.40;99.90;;;;;;5031540;28;20987;-51
2021/10/02 08:28:33;;;;;;;6.23;4.60;;;15.40;99.90;;;;;;5031085;28;20475;-50
2021/10/02 08:31:01;;;;;;;6.00;4.87;;;15.40;99.90;;;;;;5031467;28;20436;-51
2021/10/02 08:33:29;;;;;;;6.70;4.90;;;15.40;99.90;;;;;;5070799;22;20938;-52
2021/10/02 08:35:56;;;;;;;6.90;5.77;;;15.40;99.90;;;;;;5070615;28;20429;-52
2021/10/02 08:38:23;;;;;;;5.50;4.90;;;15.30;99.90;;;;;;5070727;28;20430;-52
2021/10/02 08:40:50;;;;;;;6.03;4.60;;;15.40;99.90;;;;;;5071058;28;20436;-52
2021/10/02 08:43:17;;;;;;;8.17;5.80;;;15.80;99.90;;;;;;5070210;28;20456;-52
2021/10/02 08:45:44;;;;;;;9.80;5.17;;;15.40;99.90;;;;;;5070509;28;20973;-52
2021/10/02 08:48:14;;;;;;;8.27;5.50;;;15.40;99.90;;;;;;5070333;28;21010;-52
2021/10/02 08:50:43;;;;;;;5.23;4.67;;;15.40;99.90;;;;;;5070661;28;20437;-53
2021/10/02 08:53:10;;;;;;;8.30;4.87;;;15.40;99.90;;;;;;5070435;28;20452;-52
2021/10/02 08:55:37;;;;;;;4.67;4.27;;;15.20;99.90;;;;;;5070325;28;20441;-52
2021/10/02 08:58:04;;;;;;;6.30;4.33;;;15.30;99.90;;;;;;5070043;28;20401;-51
2021/10/02 09:00:31;;;;;;;6.67;5.40;;;15.30;99.90;;;;;;5070228;28;20458;-52
2021/10/02 09:02:59;;;;;;;5.57;4.93;;;15.30;99.90;;;;;;5070554;28;20785;-52
2021/10/02 09:05:26;;;;;;;6.57;4.73;;;15.40;99.90;;;;;;5070112;28;20485;-52
2021/10/02 09:07:57;;;;;;;6.57;4.20;;;15.30;99.90;;;;;;5069613;28;20440;-52
2021/10/02 09:10:25;;;;;;;6.40;4.37;;;15.50;99.90;;;;;;5070110;28;20509;-52
2021/10/02 09:12:52;;;;;;;6.03;5.40;;;15.50;99.90;;;;;;5070481;28;20472;-51
2021/10/02 09:15:26;;;;;;;3.83;3.50;;;15.50;99.90;;;;;;5070393;28;20437;-52
2021/10/02 09:17:54;;;;;;;8.30;4.37;;;15.90;99.90;;;;;;5069295;28;20411;-52
2021/10/02 09:20:22;;;;;;;4.83;4.33;;;15.80;99.90;;;;;;5070143;28;20532;-52
2021/10/02 09:22:53;;;;;;;4.67;3.70;;;15.60;99.90;;;;;;5069941;28;20431;-51
2021/10/02 09:25:22;;;;;;;3.90;3.20;;;15.90;99.90;;;;;;5070028;28;20564;-52
2021/10/02 09:28:02;;;;;;;5.10;3.60;;;15.80;99.90;;;;;;5069769;28;20519;-52
2021/10/02 09:30:29;;;;;;;4.37;3.93;;;15.80;99.90;;;;;;5073907;28;20452;-52
2021/10/02 09:33:03;;;;;;;5.00;4.47;;;15.80;99.90;;;;;;5073664;28;20553;-52
2021/10/02 09:35:35;;;;;;;5.50;4.53;;;15.20;99.90;;;;;;5073630;28;20431;-51
2021/10/02 09:38:03;;;;;;;4.60;3.73;;;15.90;99.90;;;;;;5073363;28;20454;-52
2021/10/02 09:40:33;;;;;;;4.10;3.70;;;16.00;99.90;;;;;;5073363;28;20900;-52
2021/10/02 09:43:01;;;;;;;4.90;4.40;;;16.00;99.90;;;;;;5073642;28;20484;-51
2021/10/02 09:45:31;;;;;;;5.53;3.70;;;16.10;99.90;;;;;;5073100;28;20479;-52
2021/10/02 09:48:00;;;;;;;6.50;3.77;;;16.20;99.90;;;;;;5071963;28;20429;-52
2021/10/02 09:50:28;;;;;;;5.70;3.53;;;16.10;99.90;;;;;;5072822;28;20438;-52
2021/10/02 09:52:57;;;;;;;5.37;3.90;;;16.30;99.90;;;;;;5073121;28;20505;-52
2021/10/02 09:55:26;;;;;;;4.40;3.33;;;16.30;99.90;;;;;;5073154;28;20842;-52
2021/10/02 09:57:56;;;;;;;4.27;2.97;;;16.40;99.90;;;;;;5072674;28;20426;-52
2021/10/02 10:00:25;;;;;;;5.87;3.60;;;16.40;99.90;;;;;;5072941;28;20537;-52
2021/10/02 10:02:53;;;;;;;4.70;3.20;;;16.50;99.90;;;;;;5072915;28;20462;-52
2021/10/02 10:05:19;;;;;;;5.30;3.60;;;16.60;99.90;;;;;;5072818;28;20456;-52
2021/10/02 10:07:55;;;;;;;5.00;3.10;;;16.60;99.90;;;;;;5054852;28;20454;-52
2021/10/02 10:10:23;;;;;;;4.53;2.93;;;16.60;99.90;;;;;;5072620;28;20435;-52
2021/10/02 10:12:50;;;;;;;4.10;3.37;;;16.50;99.90;;;;;;5072120;28;20461;-52
2021/10/02 10:15:31;;;;;;;7.57;3.63;;;16.70;99.90;;;;;;5072874;28;20442;-51
2021/10/02 10:17:58;;;;;;;5.13;3.27;;;16.80;99.90;;;;;;5072408;28;20425;-52
2021/10/02 10:20:34;;;;;;;3.20;2.53;;;16.80;99.90;;;;;;5054592;28;20486;-53
2021/10/02 10:23:02;;;;;;;5.43;3.90;;;16.80;99.80;;;;;;5072691;28;20469;-52
2021/10/02 10:25:29;;;;;;;3.63;2.33;;;16.90;99.60;;;;;;5054320;28;20936;-51
2021/10/02 10:27:59;;;;;;;5.30;4.87;;;16.90;99.40;;;;;;5072678;28;20429;-52
2021/10/02 10:30:29;;;;;;;3.97;3.07;;;17.00;99.40;;;;;;5073091;28;20438;-51
2021/10/02 10:32:59;;;;;;;3.70;2.67;;;16.80;99.20;;;;;;5072535;28;20520;-51
2021/10/02 10:35:28;;;;;;;3.20;2.70;;;17.10;99.30;;;;;;5072848;28;20427;-52
2021/10/02 10:37:55;;;;;;;9.30;3.50;;;17.10;99.40;;;;;;5072651;28;20895;-52
2021/10/02 10:40:22;;;;;;;6.30;3.80;;;17.20;99.50;;;;;;5072708;28;20434;-51
2021/10/02 10:42:49;;;;;;;3.07;2.60;;;17.20;99.60;;;;;;5072309;28;20454;-51
2021/10/02 10:45:16;;;;;;;3.13;2.53;;;17.30;99.20;;;;;;5072365;28;20506;-51
2021/10/02 10:47:45;;;;;;;3.70;2.70;;;17.50;98.30;;;;;;5071568;28;20438;-54
2021/10/02 10:50:13;;;;;;;2.53;2.13;;;17.40;98.00;;;;;;5072185;28;20469;-51
2021/10/02 10:52:42;;;;;;;4.80;2.87;;;17.40;98.10;;;;;;5072452;28;20560;-52
2021/10/02 10:55:13;;;;;;;4.57;3.13;;;17.50;98.20;;;;;;5071674;28;20434;-51
2021/10/02 10:57:42;;;;;;;5.50;2.40;;;17.60;98.10;;;;;;5071426;28;20407;-52
2021/10/02 11:00:17;;;;;;;4.10;2.90;;;17.60;97.90;;;;;;5072133;28;20765;-52
2021/10/02 11:02:48;;;;;;;2.90;2.33;;;17.60;97.80;;;;;;5071679;28;20895;-51
2021/10/02 11:06:00;;;;;;;3.73;2.20;;;17.70;97.80;;;;;;5072071;28;20905;-52
2021/10/02 11:09:00;;;;;;;3.47;2.20;;;17.70;97.30;;;;;;5070943;28;20429;-52
2021/10/02 11:11:56;;;;;;;3.27;2.93;;;17.70;97.50;;;;;;5071724;28;20415;-51
2021/10/02 11:14:59;;;;;;;4.80;2.77;;;17.80;97.70;;;;;;5071271;28;20543;-51
2021/10/02 11:17:35;;;;;;;5.40;2.60;;;17.80;97.90;;;;;;5071233;28;20473;-52
2021/10/02 11:20:29;;;;;;;5.00;2.70;;;17.90;98.20;;;;;;5071365;28;20799;-52
2021/10/02 11:23:30;;;;;;;5.13;2.40;;;17.90;98.30;;;;;;5071535;28;20460;-51
2021/10/02 11:26:12;;;;;;;4.00;2.80;;;18.00;98.60;;;;;;5071532;28;20503;-52
2021/10/02 11:28:39;;;;;;;3.50;3.00;;;18.00;98.70;;;;;;5071012;28;20432;-52
2021/10/02 11:31:13;;;;;;;4.20;2.57;;;17.80;98.60;;;;;;5071213;28;20437;-52
2021/10/02 11:33:43;;;;;;;3.77;2.60;;;18.10;98.90;;;;;;5071627;28;20872;-52
2021/10/02 11:36:46;;;;;;;4.70;2.70;;;18.10;99.00;;;;;;5071105;28;20550;-52
2021/10/02 11:39:18;;;;;;;5.60;2.63;;;18.10;99.10;;;;;;5071044;28;20522;-51
2021/10/02 11:41:47;;;;;;;3.77;2.73;;;18.20;99.00;;;;;;5070818;28;20432;-52
2021/10/02 11:44:21;;;;;;;4.50;2.30;;;18.10;98.80;;;;;;5070936;28;20499;-51
2021/10/02 11:46:53;;;;;;;4.13;3.23;;;18.20;98.80;;;;;;5071016;28;20977;-52
2021/10/02 11:49:21;;;;;;;7.23;3.00;;;18.20;98.80;;;;;;5070546;28;20440;-52
2021/10/02 11:52:10;;;;;;;2.93;2.50;;;18.30;99.00;;;;;;5070653;28;20437;-51
2021/10/02 11:54:38;;;;;;;11.07;9.23;;;18.30;98.40;;;;;;5070881;28;20843;-51
2021/10/02 11:57:11;;;;;;;4.10;3.00;;;18.40;98.50;;;;;;5070594;28;20916;-51
2021/10/02 11:59:42;;;;;;;3.43;2.70;;;18.50;98.40;;;;;;5070204;28;20456;-53
2021/10/02 12:02:11;;;;;;;4.20;2.67;;;18.30;98.10;;;;;;5071142;28;20459;-53
2021/10/02 12:04:38;;;;;;;5.50;2.30;;;18.30;98.10;;;;;;5071020;28;20453;-52
2021/10/02 12:07:04;;;;;;;4.83;2.80;;;18.60;98.40;;;;;;5070977;28;20798;-52
2021/10/02 12:09:33;;;;;;;5.17;3.07;;;18.80;98.50;;;;;;5070501;28;20448;-53
2021/10/02 12:12:00;;;;;;;3.70;2.90;;;18.80;98.40;;;;;;5070718;28;20949;-53
2021/10/02 12:14:28;;;;;;;5.30;3.07;;;18.70;98.30;;;;;;5070249;28;20435;-52
2021/10/02 12:16:57;;;;;;;2.50;2.27;;;18.60;98.10;;;;;;5070532;28;20804;-53
2021/10/02 12:19:24;;;;;;;3.30;2.47;;;18.60;97.70;;;;;;5070211;28;20433;-52
2021/10/02 12:21:55;;;;;;;3.47;2.93;;;18.80;97.60;;;;;;5070640;28;20799;-53
2021/10/02 12:24:24;;;;;;;3.97;2.80;;;18.60;97.30;;;;;;5070646;28;20484;-52
2021/10/02 12:26:58;;;;;;;4.70;3.07;;;18.90;97.40;;;;;;5070334;28;20792;-53
2021/10/02 12:29:27;;;;;;;5.63;2.33;;;18.70;96.70;;;;;;5069993;28;20425;-53
2021/10/02 12:32:00;;;;;;;6.67;3.60;;;18.90;96.70;;;;;;5070317;28;20515;-51
2021/10/02 12:34:29;;;;;;;3.80;2.47;;;18.90;96.50;;;;;;5069817;28;20984;-52
2021/10/02 12:36:58;;;;;;;7.13;3.60;;;19.00;95.70;;;;;;5070141;28;20429;-52
2021/10/02 12:39:28;;;;;;;6.33;2.50;;;19.00;95.70;;;;;;5070131;28;20528;-52
2021/10/02 12:41:56;;;;;;;3.73;2.60;;;19.00;95.60;;;;;;5070681;28;20443;-52
2021/10/02 12:44:25;;;;;;;4.50;2.33;;;19.10;95.60;;;;;;5070428;28;20431;-52
2021/10/02 12:46:55;;;;;;;5.03;2.70;;;19.10;95.50;;;;;;5070003;28;20480;-51
2021/10/02 12:49:24;;;;;;;3.50;2.60;;;19.20;95.50;;;;;;5069696;28;20508;-53
2021/10/02 12:51:52;;;;;;;3.30;2.30;;;19.20;95.40;;;;;;5069983;28;20469;-52
2021/10/02 12:54:25;;;;;;;4.00;1.97;;;19.20;95.10;;;;;;5070218;28;20479;-52
2021/10/02 12:57:05;;;;;;;6.13;2.33;;;19.30;95.00;;;;;;5069833;28;20465;-52
2021/10/02 12:59:44;;;;;;;4.77;2.80;;;19.30;95.00;;;;;;5069780;28;20464;-52
2021/10/02 13:02:11;;;;;;;4.87;2.23;;;19.30;95.10;;;;;;5069672;28;20469;-52
2021/10/02 13:04:38;;;;;;;5.30;2.60;;;19.30;95.10;;;;;;5072583;28;20878;-52
2021/10/02 13:07:06;;;;;;;2.73;2.00;;;19.30;95.00;;;;;;5073514;28;20550;-52
2021/10/02 13:09:54;;;;;;;5.47;2.37;;;19.30;94.90;;;;;;5073722;28;20801;-52
2021/10/02 13:12:27;;;;;;;2.50;2.27;;;19.40;95.00;;;;;;5073889;28;20430;-52
2021/10/02 13:14:55;;;;;;;4.93;2.20;;;19.40;94.90;;;;;;5074119;28;20433;-52
2021/10/02 13:17:22;;;;;;;5.30;2.80;;;19.40;94.80;;;;;;5073403;28;20427;-52
2021/10/02 13:19:49;;;;;;;3.63;2.50;;;19.50;94.90;;;;;;5073242;28;20491;-52
2021/10/02 13:22:18;;;;;;;2.40;2.20;;;19.50;94.90;;;;;;5073390;28;20440;-52
2021/10/02 13:25:11;;;;;;;2.50;2.30;;;19.60;95.30;;;;;;5073282;28;20468;-52
2021/10/02 13:27:42;;;;;;;5.30;2.80;;;19.60;94.90;;;;;;5073175;28;20517;-54
2021/10/02 13:30:12;;;;;;;4.80;2.53;;;19.60;94.90;;;;;;5072900;28;20433;-51
2021/10/02 13:32:39;;;;;;;4.20;2.40;;;19.70;95.10;;;;;;5074035;28;20433;-54
2021/10/02 13:35:10;;;;;;;4.53;2.50;;;19.70;95.10;;;;;;5073502;28;20448;-51
2021/10/02 13:37:45;;;;;;;4.23;3.83;;;19.70;95.20;;;;;;5072678;28;20462;-52
2021/10/02 13:40:25;;;;;;;9.10;3.30;;;19.70;95.30;;;;;;5073352;28;20433;-51
2021/10/02 13:42:54;;;;;;;5.20;2.60;;;19.70;95.30;;;;;;5073028;28;20466;-51
2021/10/02 13:45:26;;;;;;;3.90;2.43;;;19.70;95.40;;;;;;5073213;28;20511;-51